sensor_id;sensor_type;location;lat;lon;timestamp;pressure;altitude;pressure_sealevel;temperature;humidity
46638;BME280;32365;46.938;7.390;2023-05-22T13:52:40;94922.34;;;34.29;24.46
46638;BME280;32365;46.938;7.390;2023-05-22T13:55:07;94918.59;;;36.25;21.09
46638;BME280;32365;46.938;7.390;2023-05-22T13:57:34;94919.50;;;36.14;19.56
46638;BME280;32365;46.938;7.390;2023-05-22T14:00:03;94923.44;;;35.75;21.85
46638;BME280;32365;46.938;7.390;2023-05-22T14:02:29;94910.88;;;35.61;20.70
46638;BME280;32365;46.938;7.390;2023-05-22T14:04:56;94912.34;;;34.40;23.84
46638;BME280;32365;46.938;7.390;2023-05-22T14:07:22;94911.22;;;32.47;26.73
46638;BME280;32365;46.938;7.390;2023-05-22T14:09:50;94908.94;;;33.22;25.51
46638;BME280;32365;46.938;7.390;2023-05-22T14:12:17;94907.31;;;35.37;21.07
46638;BME280;32365;46.938;7.390;2023-05-22T14:14:43;94904.97;;;33.73;23.01
46638;BME280;32365;46.938;7.390;2023-05-22T14:17:10;94904.38;;;32.82;28.21
46638;BME280;32365;46.938;7.390;2023-05-22T14:19:37;94898.72;;;35.11;23.15
46638;BME280;32365;46.938;7.390;2023-05-22T14:22:04;94895.94;;;32.84;24.40
46638;BME280;32365;46.938;7.390;2023-05-22T14:24:30;94902.09;;;34.17;25.00
46638;BME280;32365;46.938;7.390;2023-05-22T14:26:58;94902.81;;;32.49;23.12
46638;BME280;32365;46.938;7.390;2023-05-22T14:29:24;94901.34;;;34.13;23.04
46638;BME280;32365;46.938;7.390;2023-05-22T14:31:53;94907.66;;;35.73;21.07
46638;BME280;32365;46.938;7.390;2023-05-22T14:34:26;94905.13;;;35.94;20.05
46638;BME280;32365;46.938;7.390;2023-05-22T14:36:52;94904.84;;;35.84;21.56
46638;BME280;32365;46.938;7.390;2023-05-22T14:39:20;94911.34;;;37.20;19.02
46638;BME280;32365;46.938;7.390;2023-05-22T14:41:48;94904.59;;;32.01;24.60
46638;BME280;32365;46.938;7.390;2023-05-22T14:44:16;94914.84;;;33.98;23.60
46638;BME280;32365;46.938;7.390;2023-05-22T14:46:43;94903.75;;;34.60;23.71
46638;BME280;32365;46.938;7.390;2023-05-22T14:49:10;94902.44;;;35.94;21.01
46638;BME280;32365;46.938;7.390;2023-05-22T14:51:36;94905.91;;;35.94;19.63
46638;BME280;32365;46.938;7.390;2023-05-22T14:54:03;94901.00;;;35.12;22.15
46638;BME280;32365;46.938;7.390;2023-05-22T14:56:30;94900.28;;;33.96;23.29
46638;BME280;32365;46.938;7.390;2023-05-22T14:58:56;94893.50;;;34.93;21.32
46638;BME280;32365;46.938;7.390;2023-05-22T15:01:24;94891.94;;;33.68;24.51
46638;BME280;32365;46.938;7.390;2023-05-22T15:03:51;94892.63;;;34.58;23.89
46638;BME280;32365;46.938;7.390;2023-05-22T15:06:17;94898.09;;;36.03;22.55
46638;BME280;32365;46.938;7.390;2023-05-22T15:08:43;94902.22;;;35.46;24.74
46638;BME280;32365;46.938;7.390;2023-05-22T15:11:10;94899.25;;;35.71;25.49
46638;BME280;32365;46.938;7.390;2023-05-22T15:13:36;94908.16;;;34.84;26.06
46638;BME280;32365;46.938;7.390;2023-05-22T15:16:03;94912.69;;;34.46;26.86
46638;BME280;32365;46.938;7.390;2023-05-22T15:18:31;94911.25;;;33.12;31.33
46638;BME280;32365;46.938;7.390;2023-05-22T15:20:58;94919.22;;;33.45;29.24
46638;BME280;32365;46.938;7.390;2023-05-22T15:23:25;94921.56;;;32.67;30.15
46638;BME280;32365;46.938;7.390;2023-05-22T15:25:51;94918.38;;;32.00;30.52
46638;BME280;32365;46.938;7.390;2023-05-22T15:28:18;94916.22;;;32.56;30.63
46638;BME280;32365;46.938;7.390;2023-05-22T15:30:45;94918.19;;;30.52;32.31
46638;BME280;32365;46.938;7.390;2023-05-22T15:33:11;94925.31;;;29.38;35.59
46638;BME280;32365;46.938;7.390;2023-05-22T15:35:39;94934.31;;;28.37;35.13
46638;BME280;32365;46.938;7.390;2023-05-22T15:38:07;94933.41;;;27.50;39.49
46638;BME280;32365;46.938;7.390;2023-05-22T15:40:36;94927.16;;;27.78;40.05
46638;BME280;32365;46.938;7.390;2023-05-22T15:43:03;94932.19;;;27.64;44.40
46638;BME280;32365;46.938;7.390;2023-05-22T15:45:31;94935.44;;;26.29;50.68
46638;BME280;32365;46.938;7.390;2023-05-22T15:47:58;94936.41;;;26.08;50.48
46638;BME280;32365;46.938;7.390;2023-05-22T15:50:24;94944.19;;;26.01;50.39
46638;BME280;32365;46.938;7.390;2023-05-22T15:52:52;94938.22;;;25.39;54.73
46638;BME280;32365;46.938;7.390;2023-05-22T15:55:19;94938.34;;;25.67;49.94
46638;BME280;32365;46.938;7.390;2023-05-22T15:57:45;94934.31;;;25.73;50.51
46638;BME280;32365;46.938;7.390;2023-05-22T16:00:12;94929.69;;;25.98;53.40
46638;BME280;32365;46.938;7.390;2023-05-22T16:02:38;94932.28;;;25.29;53.88
46638;BME280;32365;46.938;7.390;2023-05-22T16:05:05;94934.81;;;26.64;48.26
46638;BME280;32365;46.938;7.390;2023-05-22T16:07:31;94938.91;;;26.46;51.37
46638;BME280;32365;46.938;7.390;2023-05-22T16:09:59;94945.09;;;25.93;51.51
46638;BME280;32365;46.938;7.390;2023-05-22T16:12:26;94944.50;;;25.59;48.66
46638;BME280;32365;46.938;7.390;2023-05-22T16:14:52;94939.59;;;25.08;49.95
46638;BME280;32365;46.938;7.390;2023-05-22T16:17:19;94946.75;;;24.82;51.87
46638;BME280;32365;46.938;7.390;2023-05-22T16:19:45;94938.59;;;24.87;52.87
46638;BME280;32365;46.938;7.390;2023-05-22T16:22:12;94943.00;;;24.83;51.17
46638;BME280;32365;46.938;7.390;2023-05-22T16:24:38;94930.44;;;24.93;51.23
46638;BME280;32365;46.938;7.390;2023-05-22T16:27:06;94930.59;;;24.63;48.81
46638;BME280;32365;46.938;7.390;2023-05-22T16:29:33;94928.53;;;24.22;49.25
46638;BME280;32365;46.938;7.390;2023-05-22T16:32:00;94924.81;;;23.81;54.23
46638;BME280;32365;46.938;7.390;2023-05-22T16:34:27;94925.56;;;23.39;54.65
46638;BME280;32365;46.938;7.390;2023-05-22T16:36:55;94927.25;;;23.44;55.89
46638;BME280;32365;46.938;7.390;2023-05-22T16:39:24;94927.56;;;23.85;50.87
46638;BME280;32365;46.938;7.390;2023-05-22T16:41:51;94921.19;;;23.64;52.65
46638;BME280;32365;46.938;7.390;2023-05-22T16:44:19;94922.97;;;23.94;51.42
46638;BME280;32365;46.938;7.390;2023-05-22T16:46:45;94913.41;;;23.68;51.21
46638;BME280;32365;46.938;7.390;2023-05-22T16:49:13;94913.75;;;23.45;52.42
46638;BME280;32365;46.938;7.390;2023-05-22T16:51:40;94913.75;;;23.06;51.48
46638;BME280;32365;46.938;7.390;2023-05-22T16:54:06;94924.88;;;22.91;53.25
46638;BME280;32365;46.938;7.390;2023-05-22T16:56:33;94932.41;;;22.63;55.26
46638;BME280;32365;46.938;7.390;2023-05-22T16:58:59;94936.38;;;23.46;53.06
46638;BME280;32365;46.938;7.390;2023-05-22T17:01:27;94948.59;;;23.60;52.57
46638;BME280;32365;46.938;7.390;2023-05-22T17:03:54;94949.25;;;22.88;54.47
46638;BME280;32365;46.938;7.390;2023-05-22T17:06:20;94952.72;;;23.10;54.84
46638;BME280;32365;46.938;7.390;2023-05-22T17:08:47;94950.47;;;22.52;57.68
46638;BME280;32365;46.938;7.390;2023-05-22T17:11:13;94946.44;;;22.28;56.66
46638;BME280;32365;46.938;7.390;2023-05-22T17:13:39;94956.06;;;22.33;57.54
46638;BME280;32365;46.938;7.390;2023-05-22T17:16:06;94961.19;;;22.03;59.89
46638;BME280;32365;46.938;7.390;2023-05-22T17:18:34;94964.63;;;22.03;58.72
46638;BME280;32365;46.938;7.390;2023-05-22T17:21:00;94962.41;;;22.32;57.05
46638;BME280;32365;46.938;7.390;2023-05-22T17:23:28;94968.09;;;22.78;56.81
46638;BME280;32365;46.938;7.390;2023-05-22T17:25:55;94967.81;;;23.09;56.65
46638;BME280;32365;46.938;7.390;2023-05-22T17:28:21;94973.66;;;22.76;57.64
46638;BME280;32365;46.938;7.390;2023-05-22T17:30:48;94980.75;;;22.93;57.94
46638;BME280;32365;46.938;7.390;2023-05-22T17:33:14;94979.25;;;23.13;58.04
46638;BME280;32365;46.938;7.390;2023-05-22T17:35:42;94975.00;;;23.60;54.87
46638;BME280;32365;46.938;7.390;2023-05-22T17:38:09;94984.44;;;23.40;54.94
46638;BME280;32365;46.938;7.390;2023-05-22T17:40:35;94985.31;;;23.23;55.41
46638;BME280;32365;46.938;7.390;2023-05-22T17:43:02;94982.16;;;22.90;54.81
46638;BME280;32365;46.938;7.390;2023-05-22T17:45:29;94978.91;;;22.85;56.60
46638;BME280;32365;46.938;7.390;2023-05-22T17:47:55;94983.03;;;22.38;56.49
46638;BME280;32365;46.938;7.390;2023-05-22T17:50:22;94977.09;;;22.68;57.34
46638;BME280;32365;46.938;7.390;2023-05-22T17:52:49;94982.28;;;22.94;56.58
46638;BME280;32365;46.938;7.390;2023-05-22T17:55:16;94980.69;;;22.54;57.53
46638;BME280;32365;46.938;7.390;2023-05-22T17:57:43;94981.28;;;22.69;57.32
46638;BME280;32365;46.938;7.390;2023-05-22T18:00:10;94987.69;;;22.33;57.52
46638;BME280;32365;46.938;7.390;2023-05-22T18:02:37;94989.09;;;22.56;56.65
46638;BME280;32365;46.938;7.390;2023-05-22T18:05:04;94992.97;;;22.24;58.88
46638;BME280;32365;46.938;7.390;2023-05-22T18:07:31;94984.44;;;22.36;58.82
46638;BME280;32365;46.938;7.390;2023-05-22T18:09:59;94984.56;;;22.57;57.10
46638;BME280;32365;46.938;7.390;2023-05-22T18:12:25;94992.22;;;22.41;57.48
46638;BME280;32365;46.938;7.390;2023-05-22T18:14:52;95002.44;;;22.34;58.38
46638;BME280;32365;46.938;7.390;2023-05-22T18:17:18;95002.91;;;21.92;60.72
46638;BME280;32365;46.938;7.390;2023-05-22T18:19:44;95004.47;;;22.19;57.94
46638;BME280;32365;46.938;7.390;2023-05-22T18:22:11;95013.56;;;21.69;57.74
46638;BME280;32365;46.938;7.390;2023-05-22T18:24:37;95014.53;;;21.33;61.82
46638;BME280;32365;46.938;7.390;2023-05-22T18:27:06;95017.69;;;21.03;62.02
46638;BME280;32365;46.938;7.390;2023-05-22T18:29:32;95024.03;;;21.02;61.59
46638;BME280;32365;46.938;7.390;2023-05-22T18:31:59;95032.13;;;21.15;62.55
46638;BME280;32365;46.938;7.390;2023-05-22T18:34:25;95030.00;;;21.26;62.35
46638;BME280;32365;46.938;7.390;2023-05-22T18:36:52;95038.25;;;21.01;62.35
46638;BME280;32365;46.938;7.390;2023-05-22T18:39:19;95028.44;;;21.25;62.34
46638;BME280;32365;46.938;7.390;2023-05-22T18:41:45;95032.34;;;21.36;61.61
46638;BME280;32365;46.938;7.390;2023-05-22T18:44:13;95031.97;;;21.20;60.53
46638;BME280;32365;46.938;7.390;2023-05-22T18:46:40;95043.03;;;20.99;60.94
46638;BME280;32365;46.938;7.390;2023-05-22T18:49:06;95034.56;;;21.11;60.76
46638;BME280;32365;46.938;7.390;2023-05-22T18:51:32;95042.13;;;21.04;60.60
46638;BME280;32365;46.938;7.390;2023-05-22T18:54:00;95037.19;;;21.02;60.36
46638;BME280;32365;46.938;7.390;2023-05-22T18:56:26;95037.03;;;20.99;62.58
46638;BME280;32365;46.938;7.390;2023-05-22T18:58:52;95034.84;;;21.01;60.86
46638;BME280;32365;46.938;7.390;2023-05-22T19:01:20;95029.63;;;21.10;60.23
46638;BME280;32365;46.938;7.390;2023-05-22T19:03:47;95027.53;;;20.89;61.33
46638;BME280;32365;46.938;7.390;2023-05-22T19:06:13;95025.38;;;20.68;63.63
46638;BME280;32365;46.938;7.390;2023-05-22T19:08:40;95033.63;;;20.53;64.49
46638;BME280;32365;46.938;7.390;2023-05-22T19:11:06;95030.94;;;20.44;64.88
46638;BME280;32365;46.938;7.390;2023-05-22T19:13:33;95028.63;;;20.06;63.97
46638;BME280;32365;46.938;7.390;2023-05-22T19:15:59;95032.03;;;20.06;64.75
46638;BME280;32365;46.938;7.390;2023-05-22T19:18:27;95037.16;;;20.11;65.35
46638;BME280;32365;46.938;7.390;2023-05-22T19:20:53;95043.81;;;20.09;65.83
46638;BME280;32365;46.938;7.390;2023-05-22T19:23:20;95046.19;;;20.19;65.93
46638;BME280;32365;46.938;7.390;2023-05-22T19:25:46;95051.88;;;20.35;64.42
46638;BME280;32365;46.938;7.390;2023-05-22T19:28:13;95041.69;;;20.34;65.13
46638;BME280;32365;46.938;7.390;2023-05-22T19:30:39;95032.16;;;20.24;65.37
46638;BME280;32365;46.938;7.390;2023-05-22T19:33:06;95033.06;;;20.19;66.60
46638;BME280;32365;46.938;7.390;2023-05-22T19:35:34;95036.19;;;20.21;66.12
46638;BME280;32365;46.938;7.390;2023-05-22T19:38:00;95036.66;;;20.23;66.67
46638;BME280;32365;46.938;7.390;2023-05-22T19:40:26;95036.28;;;20.16;65.44
46638;BME280;32365;46.938;7.390;2023-05-22T19:42:53;95040.19;;;20.05;67.43
46638;BME280;32365;46.938;7.390;2023-05-22T19:45:20;95052.00;;;19.93;67.08
46638;BME280;32365;46.938;7.390;2023-05-22T19:47:46;95057.56;;;19.92;68.13
46638;BME280;32365;46.938;7.390;2023-05-22T19:50:13;95064.19;;;19.89;68.80
46638;BME280;32365;46.938;7.390;2023-05-22T19:52:40;95071.38;;;19.97;65.29
46638;BME280;32365;46.938;7.390;2023-05-22T19:55:08;95084.19;;;19.99;67.91
46638;BME280;32365;46.938;7.390;2023-05-22T19:57:35;95068.97;;;19.87;69.92
46638;BME280;32365;46.938;7.390;2023-05-22T20:00:01;95072.84;;;19.90;68.26
46638;BME280;32365;46.938;7.390;2023-05-22T20:02:31;95079.34;;;19.64;69.39
46638;BME280;32365;46.938;7.390;2023-05-22T20:04:57;95078.09;;;19.48;70.34
46638;BME280;32365;46.938;7.390;2023-05-22T20:07:26;95085.19;;;19.47;69.10
46638;BME280;32365;46.938;7.390;2023-05-22T20:09:53;95088.00;;;19.65;69.64
46638;BME280;32365;46.938;7.390;2023-05-22T20:12:20;95088.59;;;19.76;71.66
46638;BME280;32365;46.938;7.390;2023-05-22T20:14:46;95106.50;;;19.60;71.55
46638;BME280;32365;46.938;7.390;2023-05-22T20:17:13;95107.84;;;19.43;72.98
46638;BME280;32365;46.938;7.390;2023-05-22T20:19:39;95115.22;;;19.27;73.70
46638;BME280;32365;46.938;7.390;2023-05-22T20:22:09;95124.03;;;19.17;74.41
